createdAt,value
2022-10-17T00:00:57.445Z,16.85
2022-10-17T00:03:24.515Z,21.20
2022-10-17T00:05:51.550Z,17.77
2022-10-17T00:08:19.437Z,18.88
2022-10-17T00:10:57.059Z,17.42
2022-10-17T00:13:25.176Z,15.55
2022-10-17T00:15:52.873Z,16.52
2022-10-17T00:18:20.234Z,16.05
2022-10-17T00:20:47.323Z,16.00
2022-10-17T00:23:14.407Z,18.23
2022-10-17T00:25:41.775Z,14.82
2022-10-17T00:28:13.433Z,14.27
2022-10-17T00:30:41.074Z,17.13
2022-10-17T00:33:08.163Z,20.13
2022-10-17T00:35:35.280Z,17.58
2022-10-17T00:38:02.559Z,12.88
2022-10-17T00:40:29.759Z,13.00
2022-10-17T00:42:56.819Z,14.32
2022-10-17T00:45:30.465Z,19.67
2022-10-17T00:48:07.707Z,17.70
2022-10-17T00:50:38.068Z,17.10
2022-10-17T00:53:07.744Z,13.30
2022-10-17T00:55:50.130Z,13.43
2022-10-17T00:58:18.260Z,15.50
2022-10-17T01:00:47.617Z,11.75
2022-10-17T01:03:16.477Z,13.68
2022-10-17T01:05:43.820Z,15.40
2022-10-17T01:08:11.779Z,12.85
2022-10-17T01:10:57.209Z,17.75
2022-10-17T01:13:52.743Z,13.50
2022-10-17T01:16:41.406Z,16.17
2022-10-17T01:19:27.164Z,17.00
2022-10-17T01:22:13.535Z,14.52
2022-10-17T01:24:48.665Z,17.15
2022-10-17T01:27:24.487Z,18.35
2022-10-17T01:30:42.904Z,14.73
2022-10-17T01:33:55.769Z,16.30
2022-10-17T01:36:43.760Z,14.05
2022-10-17T01:39:30.056Z,16.65
2022-10-17T01:42:29.768Z,18.35
2022-10-17T01:45:09.712Z,13.32
2022-10-17T01:50:14.577Z,16.15
2022-10-17T01:52:54.971Z,12.95
2022-10-17T01:55:45.010Z,16.70
2022-10-17T01:58:33.320Z,24.33
2022-10-17T02:01:06.220Z,15.80
2022-10-17T02:03:34.646Z,22.40
2022-10-17T02:06:02.040Z,20.70
2022-10-17T02:08:46.599Z,17.05
2022-10-17T02:11:23.628Z,14.68
2022-10-17T02:14:18.089Z,16.90
2022-10-17T02:17:08.443Z,16.92
2022-10-17T02:20:16.666Z,15.95
2022-10-17T02:23:20.233Z,15.85
2022-10-17T02:26:18.943Z,13.23
2022-10-17T02:29:06.024Z,19.63
2022-10-17T02:31:52.465Z,20.85
2022-10-17T02:34:34.004Z,15.40
2022-10-17T02:37:04.435Z,19.92
2022-10-17T02:39:33.899Z,15.68
2022-10-17T02:42:05.773Z,13.95
2022-10-17T02:44:34.533Z,14.80
2022-10-17T02:47:22.571Z,12.27
2022-10-17T02:49:54.278Z,15.23
2022-10-17T02:52:46.008Z,15.88
2022-10-17T02:55:22.836Z,16.83
2022-10-17T02:58:01.993Z,17.15
2022-10-17T03:00:30.832Z,14.75
2022-10-17T03:02:58.008Z,17.50
2022-10-17T03:05:29.234Z,14.63
2022-10-17T03:07:56.712Z,17.00
2022-10-17T03:10:25.206Z,14.57
2022-10-17T03:12:52.852Z,13.73
2022-10-17T03:15:20.395Z,17.88
2022-10-17T03:17:47.522Z,11.07
2022-10-17T03:20:14.705Z,15.25
2022-10-17T03:22:42.232Z,17.70
2022-10-17T03:25:10.579Z,14.40
2022-10-17T03:27:37.913Z,18.08
2022-10-17T03:30:06.324Z,21.52
2022-10-17T03:32:34.998Z,18.40
2022-10-17T03:35:02.705Z,22.73
2022-10-17T03:37:30.163Z,17.73
2022-10-17T03:39:57.423Z,19.08
2022-10-17T03:42:25.596Z,17.08
2022-10-17T03:44:52.927Z,22.48
2022-10-17T03:47:20.075Z,18.45
2022-10-17T03:49:47.616Z,16.35
2022-10-17T03:52:15.768Z,16.90
2022-10-17T03:54:42.940Z,20.23
2022-10-17T03:57:10.031Z,13.80
2022-10-17T03:59:37.258Z,21.95
2022-10-17T04:02:10.504Z,14.40
2022-10-17T04:04:37.829Z,19.67
2022-10-17T04:07:05.412Z,20.15
2022-10-17T04:09:34.728Z,20.58
2022-10-17T04:12:22.325Z,21.75
2022-10-17T04:14:49.629Z,17.77
2022-10-17T04:17:17.653Z,16.40
2022-10-17T04:19:45.377Z,15.13
2022-10-17T04:22:16.098Z,15.55
2022-10-17T04:24:44.122Z,17.55
2022-10-17T04:27:20.973Z,19.40
2022-10-17T04:29:48.455Z,29.38
2022-10-17T04:32:25.133Z,22.08
2022-10-17T04:34:58.466Z,16.65
2022-10-17T04:37:29.683Z,20.25
2022-10-17T04:39:57.816Z,25.23
2022-10-17T04:42:25.636Z,21.63
2022-10-17T04:44:54.604Z,24.65
2022-10-17T04:47:26.782Z,26.10
2022-10-17T04:49:55.521Z,31.05
2022-10-17T04:52:24.584Z,31.00
2022-10-17T04:54:52.794Z,29.13
2022-10-17T04:57:21.606Z,32.85
2022-10-17T05:00:15.356Z,36.00
2022-10-17T05:03:02.775Z,32.50
2022-10-17T05:05:30.813Z,23.35
2022-10-17T05:07:58.061Z,25.63
2022-10-17T05:10:29.313Z,22.98
2022-10-17T05:12:58.029Z,28.23
2022-10-17T05:15:29.612Z,29.88
2022-10-17T05:17:57.528Z,28.52
2022-10-17T05:20:27.436Z,27.00
2022-10-17T05:22:54.868Z,30.50
2022-10-17T05:25:22.312Z,35.42
2022-10-17T05:27:50.055Z,36.88
2022-10-17T05:30:18.197Z,35.30
2022-10-17T05:32:45.665Z,28.80
2022-10-17T05:35:12.748Z,20.63
2022-10-17T05:37:39.897Z,17.10
2022-10-17T05:40:08.187Z,13.88
2022-10-17T05:42:35.362Z,17.48
2022-10-17T05:45:03.796Z,17.48
2022-10-17T05:47:31.466Z,17.40
2022-10-17T05:49:59.095Z,22.65
2022-10-17T05:52:33.048Z,17.02
2022-10-17T05:55:10.702Z,44.03
2022-10-17T05:57:38.075Z,22.05
2022-10-17T06:00:09.980Z,14.65
2022-10-17T06:02:45.378Z,10.90
2022-10-17T06:05:15.011Z,22.83
2022-10-17T06:07:42.501Z,19.90
2022-10-17T06:10:14.390Z,13.38
2022-10-17T06:12:42.853Z,13.02
2022-10-17T06:15:11.399Z,12.77
2022-10-17T06:17:40.788Z,12.23
2022-10-17T06:20:08.648Z,19.33
2022-10-17T06:22:35.686Z,18.58
2022-10-17T06:25:07.431Z,11.95
2022-10-17T06:27:34.503Z,12.18
2022-10-17T06:30:02.233Z,12.00
2022-10-17T06:32:31.122Z,17.42
2022-10-17T06:34:58.462Z,14.90
2022-10-17T06:37:25.705Z,24.05
2022-10-17T06:39:53.265Z,17.75
2022-10-17T06:45:09.214Z,21.77
2022-10-17T06:47:46.104Z,19.55
2022-10-17T06:50:27.147Z,24.15
2022-10-17T06:53:05.787Z,15.73
2022-10-17T06:55:54.623Z,32.40
2022-10-17T06:58:39.528Z,16.25
2022-10-17T07:01:13.773Z,20.83
2022-10-17T07:03:43.088Z,27.58
2022-10-17T07:06:10.733Z,17.20
2022-10-17T07:08:44.053Z,16.15
2022-10-17T07:11:15.208Z,16.00
2022-10-17T07:13:43.295Z,18.30
2022-10-17T07:16:11.590Z,24.83
2022-10-17T07:18:41.078Z,19.70
2022-10-17T07:21:09.128Z,23.00
2022-10-17T07:23:37.946Z,13.97
2022-10-17T07:26:10.063Z,12.57
2022-10-17T07:28:41.375Z,12.48
2022-10-17T07:31:27.071Z,18.65
2022-10-17T07:33:54.467Z,18.45
2022-10-17T07:36:21.608Z,15.68
2022-10-17T07:38:49.958Z,18.48
2022-10-17T07:41:21.900Z,10.25
2022-10-17T07:43:50.888Z,18.05
2022-10-17T07:46:23.298Z,12.48
2022-10-17T07:48:51.004Z,8.45
2022-10-17T07:51:21.400Z,19.75
2022-10-17T07:53:48.995Z,13.85
2022-10-17T07:56:17.014Z,14.18
2022-10-17T07:58:44.311Z,11.15
2022-10-17T08:01:15.317Z,15.50
2022-10-17T08:03:50.186Z,9.68
2022-10-17T08:06:17.762Z,9.05
2022-10-17T08:08:44.878Z,9.27
2022-10-17T08:11:14.540Z,8.55
2022-10-17T08:13:42.071Z,7.70
2022-10-17T08:16:12.494Z,6.20
2022-10-17T08:18:41.424Z,9.27
2022-10-17T08:21:09.647Z,19.23
2022-10-17T08:23:37.120Z,22.15
2022-10-17T08:26:09.794Z,14.68
2022-10-17T08:28:39.065Z,26.05
2022-10-17T08:33:40.711Z,5.80
2022-10-17T08:36:09.299Z,10.85
2022-10-17T08:38:43.122Z,17.10
2022-10-17T08:41:38.710Z,6.45
2022-10-17T08:44:27.285Z,5.53
2022-10-17T08:47:00.053Z,6.75
2022-10-17T08:49:46.614Z,9.23
2022-10-17T08:52:46.380Z,7.68
2022-10-17T08:55:22.876Z,8.10
2022-10-17T08:57:50.031Z,11.25
2022-10-17T09:00:20.711Z,4.60
2022-10-17T09:03:22.635Z,7.55
2022-10-17T09:05:57.495Z,13.10
2022-10-17T09:09:13.521Z,13.82
2022-10-17T09:11:43.740Z,7.70
2022-10-17T09:15:15.831Z,11.77
2022-10-17T09:17:54.029Z,4.95
2022-10-17T09:20:37.800Z,14.60
2022-10-17T09:23:13.784Z,17.05
2022-10-17T09:25:53.193Z,13.85
2022-10-17T09:28:41.840Z,12.30
2022-10-17T09:31:23.618Z,10.18
2022-10-17T09:33:55.435Z,6.93
2022-10-17T09:36:28.160Z,15.60
2022-10-17T09:39:04.615Z,12.50
2022-10-17T09:41:46.860Z,13.10
2022-10-17T09:44:35.253Z,11.65
2022-10-17T09:47:19.833Z,12.30
2022-10-17T09:49:48.854Z,9.73
2022-10-17T09:52:28.549Z,4.82
2022-10-17T09:55:03.852Z,14.93
2022-10-17T09:58:05.141Z,13.45
2022-10-17T10:00:45.125Z,13.65
2022-10-17T10:03:26.622Z,8.27
2022-10-17T10:06:04.662Z,6.00
2022-10-17T10:08:36.472Z,18.58
2022-10-17T10:11:13.334Z,9.52
2022-10-17T10:13:43.209Z,6.90
2022-10-17T10:18:45.511Z,13.90
2022-10-17T10:21:26.907Z,9.77
2022-10-17T10:24:07.832Z,9.25
2022-10-17T10:26:48.429Z,7.35
2022-10-17T10:29:33.587Z,4.68
2022-10-17T10:32:27.856Z,8.18
2022-10-17T10:34:57.751Z,8.63
2022-10-17T10:37:44.536Z,6.53
2022-10-17T10:40:19.472Z,4.47
2022-10-17T10:42:50.067Z,3.13
2022-10-17T10:45:43.320Z,13.70
2022-10-17T10:48:48.937Z,6.35
2022-10-17T10:51:21.847Z,4.72
2022-10-17T10:54:12.551Z,3.28
2022-10-17T10:56:51.145Z,4.65
2022-10-17T10:59:28.713Z,2.65
2022-10-17T11:02:28.392Z,6.72
2022-10-17T11:05:01.603Z,5.05
2022-10-17T11:07:40.627Z,5.93
2022-10-17T11:10:10.502Z,17.50
2022-10-17T11:12:50.090Z,2.58
2022-10-17T11:15:43.625Z,7.78
2022-10-17T11:18:49.730Z,4.07
2022-10-17T11:21:28.385Z,2.13
2022-10-17T11:24:26.082Z,5.43
2022-10-17T11:27:04.315Z,7.38
2022-10-17T11:29:35.583Z,5.68
2022-10-17T11:32:14.963Z,2.47
2022-10-17T11:34:49.112Z,2.53
2022-10-17T11:37:40.927Z,4.07
2022-10-17T11:40:24.414Z,6.13
2022-10-17T11:43:01.706Z,3.97
2022-10-17T11:45:34.552Z,3.33
2022-10-17T11:48:38.929Z,6.95
2022-10-17T11:54:13.908Z,6.95
2022-10-17T11:56:57.820Z,2.80
2022-10-17T11:59:53.555Z,4.15
2022-10-17T12:02:45.178Z,12.60
2022-10-17T12:05:31.399Z,5.22
2022-10-17T12:08:42.082Z,5.07
2022-10-17T12:11:27.762Z,2.75
2022-10-17T12:13:56.550Z,11.43
2022-10-17T12:16:23.535Z,5.25
2022-10-17T12:19:05.673Z,11.10
2022-10-17T12:22:19.939Z,6.78
2022-10-17T12:25:00.724Z,6.60
2022-10-17T12:27:36.069Z,6.72
2022-10-17T12:30:20.956Z,6.38
2022-10-17T12:33:05.661Z,5.45
2022-10-17T12:35:37.461Z,9.82
2022-10-17T12:38:16.747Z,3.67
2022-10-17T12:40:48.503Z,6.40
2022-10-17T12:43:16.351Z,4.80
2022-10-17T12:45:57.781Z,6.63
2022-10-17T12:48:33.874Z,2.38
2022-10-17T12:54:11.512Z,6.38
2022-10-17T12:56:47.986Z,8.02
2022-10-17T12:59:26.014Z,4.80
2022-10-17T13:01:59.777Z,4.03
2022-10-17T13:04:29.219Z,8.80
2022-10-17T13:06:58.698Z,6.40
2022-10-17T13:09:41.995Z,4.93
2022-10-17T13:12:17.766Z,4.90
2022-10-17T13:14:46.450Z,2.45
2022-10-17T13:17:30.096Z,5.55
2022-10-17T13:19:58.003Z,7.07
2022-10-17T13:22:32.458Z,5.22
2022-10-17T13:25:16.985Z,1.92
2022-10-17T13:27:44.765Z,3.55
2022-10-17T13:30:36.423Z,3.97
2022-10-17T13:33:15.591Z,10.15
2022-10-17T13:35:59.570Z,2.65
2022-10-17T13:38:36.653Z,8.70
2022-10-17T13:41:34.271Z,5.63
2022-10-17T13:44:03.917Z,2.30
2022-10-17T13:46:38.369Z,20.17
2022-10-17T13:49:36.373Z,3.08
2022-10-17T13:52:06.928Z,10.40
2022-10-17T13:54:39.404Z,4.25
2022-10-17T13:57:30.124Z,3.28
2022-10-17T14:00:18.666Z,8.05
2022-10-17T14:02:46.183Z,4.95
2022-10-17T14:05:18.126Z,2.60
2022-10-17T14:10:42.849Z,4.30
2022-10-17T14:13:27.046Z,3.53
2022-10-17T14:15:59.388Z,6.63
2022-10-17T14:18:37.023Z,3.38
2022-10-17T14:24:21.755Z,5.57
2022-10-17T14:26:57.900Z,3.85
2022-10-17T14:29:30.297Z,3.05
2022-10-17T14:32:07.991Z,2.83
2022-10-17T14:34:38.675Z,4.45
2022-10-17T14:37:31.614Z,6.25
2022-10-17T14:40:00.901Z,7.22
2022-10-17T14:42:28.499Z,2.40
2022-10-17T14:45:08.319Z,6.75
2022-10-17T14:47:44.167Z,3.88
2022-10-17T14:50:11.348Z,6.28
2022-10-17T14:52:39.220Z,4.50
2022-10-17T14:55:26.686Z,4.47
2022-10-17T14:57:53.821Z,5.65
2022-10-17T15:00:22.969Z,11.00
2022-10-17T15:05:19.829Z,21.27
2022-10-17T15:07:47.152Z,11.10
2022-10-17T15:10:36.967Z,2.22
2022-10-17T15:15:52.140Z,4.10
2022-10-17T15:18:19.442Z,11.75
2022-10-17T15:20:46.583Z,9.82
2022-10-17T15:23:13.678Z,10.20
2022-10-17T15:25:40.944Z,13.82
2022-10-17T15:28:12.224Z,9.98
2022-10-17T15:30:39.475Z,7.65
2022-10-17T15:33:06.544Z,10.35
2022-10-17T15:35:33.796Z,7.35
2022-10-17T15:38:01.026Z,12.75
2022-10-17T15:40:29.578Z,5.40
2022-10-17T15:42:57.263Z,11.70
2022-10-17T15:45:24.761Z,7.32
2022-10-17T15:48:05.644Z,10.90
2022-10-17T15:50:32.812Z,11.40
2022-10-17T15:53:00.216Z,27.85
2022-10-17T15:55:27.433Z,14.10
2022-10-17T15:57:54.757Z,14.50
2022-10-17T16:00:23.808Z,14.73
2022-10-17T16:02:51.110Z,11.52
2022-10-17T16:05:22.624Z,18.08
2022-10-17T16:07:49.953Z,16.48
2022-10-17T16:10:18.675Z,9.88
2022-10-17T16:12:49.037Z,17.33
2022-10-17T16:15:23.203Z,15.35
2022-10-17T16:17:52.274Z,18.67
2022-10-17T16:20:20.258Z,18.13
2022-10-17T16:22:47.988Z,11.60
2022-10-17T16:25:26.478Z,9.63
2022-10-17T16:27:57.542Z,14.07
2022-10-17T16:30:28.009Z,10.18
2022-10-17T16:32:56.407Z,14.95
2022-10-17T16:35:31.803Z,10.43
2022-10-17T16:38:02.110Z,7.32
2022-10-17T16:40:29.875Z,15.77
2022-10-17T16:42:57.184Z,9.05
2022-10-17T16:45:24.461Z,11.80
2022-10-17T16:47:52.583Z,11.70
2022-10-17T16:50:20.007Z,13.80
2022-10-17T16:52:47.359Z,14.57
2022-10-17T16:55:18.044Z,11.80
2022-10-17T16:57:47.827Z,17.58
2022-10-17T17:00:15.877Z,16.10
2022-10-17T17:02:43.699Z,17.00
2022-10-17T17:05:11.432Z,22.23
2022-10-17T17:07:38.704Z,17.38
2022-10-17T17:10:06.403Z,20.38
2022-10-17T17:12:35.496Z,23.17
2022-10-17T17:15:03.409Z,26.40
2022-10-17T17:17:48.677Z,24.92
2022-10-17T17:20:17.479Z,23.38
2022-10-17T17:22:44.647Z,24.33
2022-10-17T17:25:11.981Z,13.95
2022-10-17T17:27:39.330Z,11.85
2022-10-17T17:30:07.275Z,15.05
2022-10-17T17:32:34.367Z,9.63
2022-10-17T17:35:01.591Z,11.25
2022-10-17T17:37:29.337Z,19.83
2022-10-17T17:39:56.755Z,15.73
2022-10-17T17:42:23.902Z,17.17
2022-10-17T17:44:51.649Z,25.75
2022-10-17T17:47:19.053Z,36.55
2022-10-17T17:49:46.173Z,54.15
2022-10-17T17:52:13.203Z,36.10
2022-10-17T17:54:41.109Z,23.90
2022-10-17T17:57:08.452Z,21.20
2022-10-17T17:59:37.079Z,16.48
2022-10-17T18:02:05.741Z,31.75
2022-10-17T18:04:32.993Z,20.35
2022-10-17T18:07:00.173Z,18.15
2022-10-17T18:09:27.389Z,31.30
2022-10-17T18:11:54.713Z,28.85
2022-10-17T18:14:23.311Z,31.63
2022-10-17T18:16:50.490Z,30.98
2022-10-17T18:19:17.826Z,29.42
2022-10-17T18:21:45.050Z,36.97
2022-10-17T18:24:12.201Z,37.85
2022-10-17T18:26:39.685Z,39.97
2022-10-17T18:29:06.985Z,37.83
2022-10-17T18:31:37.160Z,46.00
2022-10-17T18:34:05.232Z,52.22
2022-10-17T18:36:34.709Z,39.40
2022-10-17T18:41:29.938Z,25.10
2022-10-17T18:43:57.593Z,19.83
2022-10-17T18:46:35.709Z,38.75
2022-10-17T18:49:03.393Z,31.60
2022-10-17T18:51:30.745Z,21.05
2022-10-17T18:53:58.514Z,21.52
2022-10-17T18:56:26.331Z,32.13
2022-10-17T18:58:54.275Z,25.38
2022-10-17T19:01:25.206Z,32.67
2022-10-17T19:03:55.545Z,26.13
2022-10-17T19:06:31.030Z,31.05
2022-10-17T19:09:01.073Z,32.30
2022-10-17T19:11:30.845Z,26.52
2022-10-17T19:14:01.957Z,33.55
2022-10-17T19:16:35.670Z,21.88
2022-10-17T19:19:18.624Z,25.77
2022-10-17T19:21:46.289Z,33.50
2022-10-17T19:24:18.519Z,25.70
2022-10-17T19:26:49.651Z,24.30
2022-10-17T19:29:18.243Z,21.30
2022-10-17T19:31:46.684Z,29.48
2022-10-17T19:34:15.223Z,30.33
2022-10-17T19:36:43.275Z,32.53
2022-10-17T19:39:14.859Z,35.85
2022-10-17T19:41:43.932Z,29.55
2022-10-17T19:44:11.459Z,21.77
2022-10-17T19:46:39.364Z,27.02
2022-10-17T19:49:07.116Z,31.70
2022-10-17T19:51:34.290Z,18.38
2022-10-17T19:54:01.844Z,22.35
2022-10-17T19:56:32.125Z,20.50
2022-10-17T19:58:59.333Z,19.85
2022-10-17T20:01:30.927Z,28.15
2022-10-17T20:03:58.092Z,22.40
2022-10-17T20:06:26.363Z,19.77
2022-10-17T20:08:53.804Z,23.60
2022-10-17T20:11:24.935Z,21.67
2022-10-17T20:13:53.789Z,29.88
2022-10-17T20:16:24.778Z,28.95
2022-10-17T20:18:55.066Z,28.38
2022-10-17T20:21:34.396Z,24.58
2022-10-17T20:24:03.786Z,24.13
2022-10-17T20:29:17.537Z,23.45
2022-10-17T20:31:46.281Z,22.58
2022-10-17T20:34:16.122Z,22.60
2022-10-17T20:36:43.843Z,33.22
2022-10-17T20:39:13.904Z,24.83
2022-10-17T20:41:42.127Z,22.13
2022-10-17T20:44:10.699Z,24.10
2022-10-17T20:46:44.370Z,26.50
2022-10-17T20:49:18.690Z,27.08
2022-10-17T20:51:45.963Z,25.48
2022-10-17T20:54:13.098Z,23.45
2022-10-17T20:56:40.336Z,23.63
2022-10-17T20:59:13.655Z,22.67
2022-10-17T21:01:41.338Z,23.58
2022-10-17T21:04:40.567Z,24.05
2022-10-17T21:06:56.038Z,29.73
2022-10-17T21:09:23.688Z,27.20
2022-10-17T21:11:54.406Z,30.38
2022-10-17T21:14:23.612Z,30.00
2022-10-17T21:16:54.062Z,19.70
2022-10-17T21:19:21.493Z,22.42
2022-10-17T21:21:49.090Z,27.23
2022-10-17T21:24:19.766Z,19.30
2022-10-17T21:26:49.696Z,29.45
2022-10-17T21:29:16.746Z,28.75
2022-10-17T21:31:44.667Z,27.70
2022-10-17T21:34:21.360Z,26.48
2022-10-17T21:36:48.831Z,31.73
2022-10-17T21:39:16.650Z,24.83
2022-10-17T21:41:44.614Z,25.25
2022-10-17T21:44:15.408Z,20.00
2022-10-17T21:46:43.413Z,29.58
2022-10-17T21:49:17.481Z,26.30
2022-10-17T21:51:46.945Z,26.13
2022-10-17T21:54:15.963Z,27.83
2022-10-17T21:56:43.314Z,26.48
2022-10-17T21:59:11.183Z,24.65
2022-10-17T22:01:41.257Z,18.58
2022-10-17T22:04:12.980Z,18.10
2022-10-17T22:06:43.077Z,23.25
2022-10-17T22:09:21.806Z,20.63
2022-10-17T22:11:53.932Z,18.58
2022-10-17T22:14:25.571Z,18.13
2022-10-17T22:16:53.246Z,17.67
2022-10-17T22:19:24.399Z,20.05
2022-10-17T22:21:52.482Z,26.52
2022-10-17T22:26:48.161Z,26.87
2022-10-17T22:29:15.525Z,26.95
2022-10-17T22:31:43.058Z,24.02
2022-10-17T22:34:13.767Z,29.30
2022-10-17T22:36:41.283Z,18.60
2022-10-17T22:39:09.053Z,22.27
2022-10-17T22:41:36.249Z,24.77
2022-10-17T22:44:03.840Z,22.95
2022-10-17T22:46:30.862Z,20.98
2022-10-17T22:48:58.086Z,20.90
2022-10-17T22:51:25.389Z,22.73
2022-10-17T22:53:52.570Z,25.75
2022-10-17T22:56:21.086Z,17.90
2022-10-17T22:58:48.739Z,21.80
2022-10-17T23:01:23.960Z,14.82
2022-10-17T23:03:52.108Z,15.35
2022-10-17T23:06:20.146Z,15.55
2022-10-17T23:08:48.375Z,14.70
2022-10-17T23:11:15.852Z,18.17
2022-10-17T23:13:42.995Z,19.38
2022-10-17T23:16:10.462Z,23.23
2022-10-17T23:18:38.441Z,18.70
2022-10-17T23:21:06.773Z,24.52
2022-10-17T23:23:33.858Z,32.25
2022-10-17T23:26:10.733Z,25.48
2022-10-17T23:28:38.874Z,17.10
2022-10-17T23:31:15.068Z,22.58
2022-10-17T23:33:44.319Z,27.40
2022-10-17T23:36:17.797Z,22.52
2022-10-17T23:38:46.108Z,25.83
2022-10-17T23:41:13.835Z,21.40
2022-10-17T23:43:41.562Z,26.85
2022-10-17T23:46:08.754Z,23.48
2022-10-17T23:48:38.529Z,21.80
2022-10-17T23:51:08.108Z,22.88
2022-10-17T23:53:37.093Z,20.75
2022-10-17T23:56:05.362Z,24.67
2022-10-17T23:58:32.843Z,25.80
